createdAt,value
2022-11-05T00:02:16.557Z,101942.44
2022-11-05T00:05:06.155Z,101928.91
2022-11-05T00:08:03.005Z,101943.19
2022-11-05T00:10:37.154Z,101936.66
2022-11-05T00:13:28.848Z,101957.06
2022-11-05T00:16:18.784Z,101955.69
2022-11-05T00:19:07.857Z,101958.66
2022-11-05T00:21:59.260Z,101964.16
2022-11-05T00:24:49.731Z,101967.16
2022-11-05T00:27:20.553Z,101954.38
2022-11-05T00:29:51.268Z,101955.72
2022-11-05T00:32:22.442Z,101950.91
2022-11-05T00:34:52.701Z,101972.31
2022-11-05T00:37:22.861Z,101952.59
2022-11-05T00:39:53.458Z,101957.31
2022-11-05T00:42:41.682Z,101978.63
2022-11-05T00:45:12.727Z,101954.59
2022-11-05T00:48:02.587Z,101981.13
2022-11-05T00:50:33.938Z,101959.59
2022-11-05T00:53:04.885Z,101956.69
2022-11-05T00:55:46.382Z,101953.41
2022-11-05T00:58:20.281Z,101966.84
2022-11-05T01:00:53.316Z,101952.38
2022-11-05T01:03:32.053Z,101950.03
2022-11-05T01:06:08.118Z,101952.97
2022-11-05T01:08:39.388Z,101947.22
2022-11-05T01:11:34.343Z,101952.84
2022-11-05T01:14:11.076Z,101953.84
2022-11-05T01:16:42.524Z,101954.16
2022-11-05T01:19:13.465Z,101949.31
2022-11-05T01:21:43.479Z,101960.81
2022-11-05T01:24:14.737Z,101966.41
2022-11-05T01:26:44.780Z,101948.31
2022-11-05T01:29:15.738Z,101967.75
2022-11-05T01:31:46.844Z,101954.03
2022-11-05T01:34:19.473Z,101931.50
2022-11-05T01:36:51.651Z,101951.88
2022-11-05T01:39:23.330Z,101938.00
2022-11-05T01:41:55.377Z,101953.09
2022-11-05T01:44:44.652Z,101933.06
2022-11-05T01:47:35.292Z,101936.75
2022-11-05T01:50:33.719Z,101948.28
2022-11-05T01:53:18.138Z,101925.69
2022-11-05T01:56:06.105Z,101921.47
2022-11-05T01:58:51.635Z,101937.50
2022-11-05T02:01:24.341Z,101920.22
2022-11-05T02:03:59.697Z,101918.50
2022-11-05T02:06:33.592Z,101914.38
2022-11-05T02:09:08.424Z,101904.94
2022-11-05T02:11:38.778Z,101937.78
2022-11-05T02:14:08.769Z,101903.09
2022-11-05T02:16:44.711Z,101906.72
2022-11-05T02:19:27.871Z,101903.38
2022-11-05T02:22:24.254Z,101905.19
2022-11-05T02:25:17.211Z,101899.22
2022-11-05T02:28:06.529Z,101894.09
2022-11-05T02:31:25.817Z,101893.38
2022-11-05T02:34:15.631Z,101897.06
2022-11-05T02:39:58.026Z,101881.88
2022-11-05T02:42:58.104Z,101888.50
2022-11-05T02:45:31.829Z,101872.84
2022-11-05T02:48:17.809Z,101870.41
2022-11-05T02:51:12.585Z,101869.63
2022-11-05T02:53:58.227Z,101870.78
2022-11-05T02:56:37.989Z,101862.19
2022-11-05T02:59:08.757Z,101867.66
2022-11-05T03:01:41.789Z,101882.06
2022-11-05T03:04:16.950Z,101854.09
2022-11-05T03:07:06.221Z,101846.47
2022-11-05T03:09:40.657Z,101845.06
2022-11-05T03:12:41.704Z,101842.94
2022-11-05T03:15:42.709Z,101827.25
2022-11-05T03:18:31.462Z,101823.06
2022-11-05T03:21:24.718Z,101824.50
2022-11-05T03:24:06.277Z,101810.66
2022-11-05T03:26:50.796Z,101812.81
2022-11-05T03:29:32.506Z,101801.53
2022-11-05T03:32:08.352Z,101799.28
2022-11-05T03:34:55.161Z,101785.72
2022-11-05T03:37:29.786Z,101791.50
2022-11-05T03:40:03.765Z,101779.50
2022-11-05T03:42:37.721Z,101774.69
2022-11-05T03:45:23.672Z,101772.41
2022-11-05T03:47:57.290Z,101785.94
2022-11-05T03:50:54.398Z,101760.75
2022-11-05T03:53:30.181Z,101771.69
2022-11-05T03:56:06.379Z,101748.25
2022-11-05T03:58:38.058Z,101748.63
2022-11-05T04:01:08.286Z,101742.69
2022-11-05T04:03:39.397Z,101739.44
2022-11-05T04:06:27.657Z,101738.69
2022-11-05T04:09:16.955Z,101754.19
2022-11-05T04:12:04.978Z,101716.41
2022-11-05T04:14:35.772Z,101720.59
2022-11-05T04:17:09.585Z,101709.66
2022-11-05T04:20:03.177Z,101721.25
2022-11-05T04:22:55.181Z,101688.88
2022-11-05T04:25:27.573Z,101716.59
2022-11-05T04:28:05.684Z,101699.13
2022-11-05T04:30:37.253Z,101677.59
2022-11-05T04:33:19.509Z,101675.97
2022-11-05T04:35:53.530Z,101664.13
2022-11-05T04:38:23.524Z,101658.59
2022-11-05T04:40:54.322Z,101673.22
2022-11-05T04:43:28.623Z,101650.81
2022-11-05T04:46:00.052Z,101647.63
2022-11-05T04:48:45.548Z,101650.84
2022-11-05T04:51:16.673Z,101642.97
2022-11-05T04:53:49.425Z,101634.75
2022-11-05T04:56:26.236Z,101634.31
2022-11-05T04:58:57.172Z,101614.13
2022-11-05T05:01:27.896Z,101650.50
2022-11-05T05:03:59.967Z,101620.91
2022-11-05T05:06:30.201Z,101616.00
2022-11-05T05:09:00.681Z,101622.72
2022-11-05T05:11:31.823Z,101615.88
2022-11-05T05:14:06.388Z,101603.06
2022-11-05T05:17:12.960Z,101615.59
2022-11-05T05:20:01.742Z,101598.31
2022-11-05T05:22:33.303Z,101588.00
2022-11-05T05:25:04.762Z,101603.50
2022-11-05T05:27:39.005Z,101589.66
2022-11-05T05:30:08.978Z,101569.75
2022-11-05T05:32:42.675Z,101566.91
2022-11-05T05:35:14.664Z,101557.03
2022-11-05T05:37:46.181Z,101569.84
2022-11-05T05:40:17.628Z,101551.84
2022-11-05T05:42:50.472Z,101545.28
2022-11-05T05:45:23.173Z,101555.59
2022-11-05T05:47:55.303Z,101540.41
2022-11-05T05:50:27.884Z,101534.09
2022-11-05T05:53:00.562Z,101564.63
2022-11-05T05:55:32.578Z,101547.75
2022-11-05T05:58:13.252Z,101551.09
2022-11-05T06:00:43.417Z,101527.94
2022-11-05T06:03:13.866Z,101526.00
2022-11-05T06:05:45.093Z,101550.53
2022-11-05T06:08:17.389Z,101518.72
2022-11-05T06:10:57.879Z,101536.28
2022-11-05T06:13:30.323Z,101514.78
2022-11-05T06:16:11.001Z,101504.47
2022-11-05T06:18:41.367Z,101503.03
2022-11-05T06:21:16.370Z,101505.88
2022-11-05T06:23:51.442Z,101523.16
2022-11-05T06:26:22.948Z,101500.50
2022-11-05T06:28:58.584Z,101515.00
2022-11-05T06:31:30.172Z,101502.13
2022-11-05T06:34:01.727Z,101493.88
2022-11-05T06:36:33.848Z,101481.97
2022-11-05T06:39:05.522Z,101497.31
2022-11-05T06:41:56.901Z,101511.56
2022-11-05T06:44:29.595Z,101482.50
2022-11-05T06:47:01.885Z,101494.94
2022-11-05T06:49:36.709Z,101465.91
2022-11-05T06:52:08.423Z,101469.25
2022-11-05T06:54:39.920Z,101465.91
2022-11-05T06:57:12.489Z,101462.28
2022-11-05T07:00:03.290Z,101448.50
2022-11-05T07:02:42.799Z,101463.88
2022-11-05T07:05:25.773Z,101478.66
2022-11-05T07:07:56.224Z,101457.44
2022-11-05T07:10:26.802Z,101446.00
2022-11-05T07:12:57.917Z,101446.97
2022-11-05T07:15:28.304Z,101443.78
2022-11-05T07:18:04.227Z,101436.81
2022-11-05T07:20:37.710Z,101432.09
2022-11-05T07:23:09.412Z,101442.25
2022-11-05T07:25:40.738Z,101440.03
2022-11-05T07:28:12.200Z,101437.41
2022-11-05T07:30:42.772Z,101432.38
2022-11-05T07:33:14.152Z,101431.03
2022-11-05T07:35:45.037Z,101433.00
2022-11-05T07:38:15.445Z,101435.94
2022-11-05T07:40:45.715Z,101438.72
2022-11-05T07:43:17.726Z,101448.09
2022-11-05T07:45:50.749Z,101431.66
2022-11-05T07:48:21.084Z,101429.16
2022-11-05T07:50:55.030Z,101443.84
2022-11-05T07:53:26.417Z,101425.72
2022-11-05T07:55:58.525Z,101424.06
2022-11-05T07:58:30.505Z,101439.84
2022-11-05T08:01:03.319Z,101425.09
2022-11-05T08:03:35.071Z,101420.34
2022-11-05T08:06:06.183Z,101426.78
2022-11-05T08:08:37.427Z,101412.28
2022-11-05T08:11:09.895Z,101419.88
2022-11-05T08:13:41.758Z,101424.03
2022-11-05T08:16:13.762Z,101433.25
2022-11-05T08:18:47.199Z,101417.78
2022-11-05T08:21:18.183Z,101417.41
2022-11-05T08:23:52.401Z,101419.94
2022-11-05T08:26:22.904Z,101417.56
2022-11-05T08:28:55.846Z,101441.97
2022-11-05T08:31:26.186Z,101414.22
2022-11-05T08:34:02.175Z,101413.00
2022-11-05T08:36:33.786Z,101430.53
2022-11-05T08:39:05.358Z,101429.28
2022-11-05T08:41:36.064Z,101431.63
2022-11-05T08:44:08.018Z,101408.25
2022-11-05T08:46:41.783Z,101400.03
2022-11-05T08:49:14.135Z,101413.25
2022-11-05T08:51:46.648Z,101406.72
2022-11-05T08:54:18.426Z,101410.19
2022-11-05T08:56:49.225Z,101433.00
2022-11-05T08:59:21.541Z,101408.66
2022-11-05T09:01:52.927Z,101422.53
2022-11-05T09:04:23.773Z,101413.47
2022-11-05T09:06:56.247Z,101414.16
2022-11-05T09:09:27.344Z,101423.47
2022-11-05T09:12:11.691Z,101439.03
2022-11-05T09:14:43.346Z,101424.81
2022-11-05T09:17:32.453Z,101430.63
2022-11-05T09:20:06.418Z,101442.69
2022-11-05T09:22:42.072Z,101445.06
2022-11-05T09:25:14.332Z,101424.44
2022-11-05T09:27:44.983Z,101430.09
2022-11-05T09:30:16.912Z,101425.22
2022-11-05T09:32:47.731Z,101430.19
2022-11-05T09:35:19.154Z,101434.31
2022-11-05T09:37:49.526Z,101463.84
2022-11-05T09:40:21.944Z,101441.31
2022-11-05T09:42:56.203Z,101450.84
2022-11-05T09:45:31.144Z,101441.53
2022-11-05T09:48:14.416Z,101447.88
2022-11-05T09:50:49.552Z,101438.81
2022-11-05T09:53:24.322Z,101446.25
2022-11-05T09:55:58.712Z,101446.78
2022-11-05T09:58:44.882Z,101446.47
2022-11-05T10:01:26.895Z,101445.28
2022-11-05T10:04:00.586Z,101452.97
2022-11-05T10:06:31.182Z,101441.03
2022-11-05T10:09:17.787Z,101453.63
2022-11-05T10:12:09.049Z,101442.59
2022-11-05T10:15:05.903Z,101467.56
2022-11-05T10:17:39.810Z,101451.16
2022-11-05T10:20:41.009Z,101448.63
2022-11-05T10:23:23.514Z,101456.66
2022-11-05T10:26:00.349Z,101464.00
2022-11-05T10:28:33.639Z,101456.06
2022-11-05T10:31:11.330Z,101456.31
2022-11-05T10:33:44.673Z,101455.38
2022-11-05T10:36:27.840Z,101495.38
2022-11-05T10:39:07.405Z,101496.38
2022-11-05T10:42:00.149Z,101464.00
2022-11-05T10:44:44.792Z,101460.06
2022-11-05T10:47:19.738Z,101471.94
2022-11-05T10:50:03.676Z,101461.88
2022-11-05T10:53:01.493Z,101484.16
2022-11-05T10:55:39.365Z,101469.56
2022-11-05T10:58:33.244Z,101476.75
2022-11-05T11:01:14.087Z,101478.03
2022-11-05T11:03:51.938Z,101484.63
2022-11-05T11:06:22.303Z,101485.34
2022-11-05T11:08:54.709Z,101481.41
2022-11-05T11:11:38.758Z,101495.66
2022-11-05T11:14:14.914Z,101487.16
2022-11-05T11:16:54.051Z,101486.56
2022-11-05T11:19:36.694Z,101493.00
2022-11-05T11:22:08.269Z,101491.59
2022-11-05T11:24:45.691Z,101486.66
2022-11-05T11:27:27.670Z,101501.13
2022-11-05T11:30:05.029Z,101498.00
2022-11-05T11:32:42.792Z,101511.41
2022-11-05T11:35:25.578Z,101489.81
2022-11-05T11:38:00.030Z,101506.81
2022-11-05T11:40:38.293Z,101473.31
2022-11-05T11:43:29.269Z,101483.94
2022-11-05T11:46:05.406Z,101483.13
2022-11-05T11:48:41.891Z,101498.41
2022-11-05T11:51:49.973Z,101477.38
2022-11-05T11:54:28.530Z,101470.78
2022-11-05T11:56:59.201Z,101481.53
2022-11-05T12:00:02.006Z,101468.63
2022-11-05T12:02:28.512Z,101477.69
2022-11-05T12:05:21.687Z,101467.75
2022-11-05T12:08:00.097Z,101476.81
2022-11-05T12:10:47.989Z,101465.81
2022-11-05T12:13:24.068Z,101466.75
2022-11-05T12:16:20.078Z,101460.28
2022-11-05T12:19:00.028Z,101466.59
2022-11-05T12:21:57.644Z,101456.94
2022-11-05T12:24:37.767Z,101461.56
2022-11-05T12:27:35.831Z,101453.06
2022-11-05T12:30:10.665Z,101466.44
2022-11-05T12:33:19.125Z,101445.84
2022-11-05T12:36:24.665Z,101454.94
2022-11-05T12:39:27.032Z,101446.31
2022-11-05T12:42:40.409Z,101460.75
2022-11-05T12:45:40.475Z,101446.50
2022-11-05T12:48:21.960Z,101454.38
2022-11-05T12:51:13.470Z,101468.91
2022-11-05T12:54:00.611Z,101450.53
2022-11-05T12:56:38.070Z,101450.94
2022-11-05T12:59:25.277Z,101455.59
2022-11-05T13:02:19.059Z,101454.88
2022-11-05T13:05:07.412Z,101464.13
2022-11-05T13:07:42.872Z,101465.19
2022-11-05T13:10:16.977Z,101456.69
2022-11-05T13:12:52.633Z,101460.38
2022-11-05T13:15:39.570Z,101477.44
2022-11-05T13:18:20.865Z,101453.88
2022-11-05T13:20:55.330Z,101450.75
2022-11-05T13:23:42.340Z,101454.31
2022-11-05T13:26:47.124Z,101469.56
2022-11-05T13:29:53.848Z,101475.66
2022-11-05T13:32:27.626Z,101473.03
2022-11-05T13:35:00.968Z,101466.50
2022-11-05T13:37:56.098Z,101457.91
2022-11-05T13:40:51.424Z,101468.41
2022-11-05T13:43:33.038Z,101467.88
2022-11-05T13:46:09.601Z,101473.56
2022-11-05T13:48:59.251Z,101460.63
2022-11-05T13:51:49.599Z,101461.09
2022-11-05T13:54:27.092Z,101456.03
2022-11-05T13:57:20.932Z,101465.91
2022-11-05T14:00:12.996Z,101471.50
2022-11-05T14:03:00.669Z,101453.53
2022-11-05T14:05:34.023Z,101451.84
2022-11-05T14:08:21.669Z,101458.16
2022-11-05T14:11:20.003Z,101451.34
2022-11-05T14:13:57.352Z,101448.94
2022-11-05T14:16:31.190Z,101455.09
2022-11-05T14:19:21.372Z,101459.63
2022-11-05T14:21:56.116Z,101453.75
2022-11-05T14:24:45.539Z,101453.84
2022-11-05T14:27:16.457Z,101460.91
2022-11-05T14:29:49.625Z,101458.16
2022-11-05T14:32:21.257Z,101478.44
2022-11-05T14:35:19.987Z,101450.41
2022-11-05T14:38:01.947Z,101447.88
2022-11-05T14:40:49.213Z,101448.06
2022-11-05T14:43:30.583Z,101464.03
2022-11-05T14:46:10.587Z,101440.31
2022-11-05T14:48:45.269Z,101438.53
2022-11-05T14:51:27.593Z,101434.22
2022-11-05T14:54:30.971Z,101438.41
2022-11-05T14:57:05.279Z,101442.63
2022-11-05T14:59:53.429Z,101435.47
2022-11-05T15:02:29.272Z,101435.47
2022-11-05T15:05:38.202Z,101435.59
2022-11-05T15:08:26.939Z,101431.41
2022-11-05T15:11:09.568Z,101433.41
2022-11-05T15:14:05.545Z,101431.59
2022-11-05T15:16:44.475Z,101438.53
2022-11-05T15:19:24.737Z,101440.94
2022-11-05T15:22:01.685Z,101434.75
2022-11-05T15:24:35.485Z,101450.41
2022-11-05T15:27:11.464Z,101437.91
2022-11-05T15:29:44.431Z,101456.28
2022-11-05T15:32:34.567Z,101462.97
2022-11-05T15:35:26.476Z,101443.47
2022-11-05T15:38:02.933Z,101436.31
2022-11-05T15:40:35.141Z,101432.75
2022-11-05T15:43:26.176Z,101420.34
2022-11-05T15:46:04.330Z,101427.09
2022-11-05T15:48:37.403Z,101430.53
2022-11-05T15:51:09.697Z,101424.66
2022-11-05T15:54:28.998Z,101411.31
2022-11-05T15:57:01.040Z,101434.94
2022-11-05T15:59:33.780Z,101427.81
2022-11-05T16:02:29.702Z,101412.69
2022-11-05T16:05:02.455Z,101428.31
2022-11-05T16:07:34.321Z,101420.44
2022-11-05T16:10:10.039Z,101412.56
2022-11-05T16:12:43.207Z,101435.13
2022-11-05T16:15:13.996Z,101415.72
2022-11-05T16:17:53.708Z,101428.94
2022-11-05T16:20:37.360Z,101405.22
2022-11-05T16:23:25.806Z,101404.50
2022-11-05T16:25:56.958Z,101409.84
2022-11-05T16:28:31.835Z,101400.38
2022-11-05T16:31:08.940Z,101396.00
2022-11-05T16:33:59.732Z,101396.00
2022-11-05T16:36:35.481Z,101396.19
2022-11-05T16:39:06.622Z,101405.88
2022-11-05T16:41:46.508Z,101397.84
2022-11-05T16:44:18.194Z,101401.56
2022-11-05T16:46:52.669Z,101384.63
2022-11-05T16:49:24.282Z,101391.78
2022-11-05T16:51:55.038Z,101393.69
2022-11-05T16:54:25.698Z,101402.72
2022-11-05T16:56:57.543Z,101406.59
2022-11-05T16:59:28.368Z,101402.09
2022-11-05T17:01:59.811Z,101404.94
2022-11-05T17:04:30.403Z,101401.34
2022-11-05T17:06:59.973Z,101399.59
2022-11-05T17:09:29.947Z,101401.69
2022-11-05T17:12:02.056Z,101419.09
2022-11-05T17:14:32.605Z,101409.56
2022-11-05T17:17:04.682Z,101414.91
2022-11-05T17:19:34.914Z,101405.44
2022-11-05T17:22:05.517Z,101391.50
2022-11-05T17:24:35.752Z,101394.47
2022-11-05T17:27:07.632Z,101378.91
2022-11-05T17:29:40.021Z,101387.00
2022-11-05T17:32:12.192Z,101377.78
2022-11-05T17:34:42.818Z,101392.88
2022-11-05T17:37:13.709Z,101380.91
2022-11-05T17:39:44.117Z,101377.66
2022-11-05T17:42:15.458Z,101385.66
2022-11-05T17:44:46.596Z,101385.97
2022-11-05T17:47:16.912Z,101374.00
2022-11-05T17:49:47.905Z,101387.22
2022-11-05T17:52:19.034Z,101416.38
2022-11-05T17:54:50.814Z,101384.06
2022-11-05T17:57:21.517Z,101403.56
2022-11-05T17:59:52.100Z,101381.84
2022-11-05T18:02:24.104Z,101383.53
2022-11-05T18:04:55.269Z,101382.81
2022-11-05T18:07:25.968Z,101392.44
2022-11-05T18:09:57.024Z,101395.91
2022-11-05T18:12:27.848Z,101411.75
2022-11-05T18:14:58.157Z,101373.53
2022-11-05T18:17:28.845Z,101378.34
2022-11-05T18:19:59.404Z,101379.63
2022-11-05T18:22:31.352Z,101369.53
2022-11-05T18:25:03.697Z,101374.56
2022-11-05T18:27:35.549Z,101362.81
2022-11-05T18:30:09.726Z,101355.59
2022-11-05T18:32:41.837Z,101370.25
2022-11-05T18:35:14.714Z,101373.13
2022-11-05T18:37:45.440Z,101386.22
2022-11-05T18:40:16.165Z,101387.97
2022-11-05T18:42:46.940Z,101364.09
2022-11-05T18:45:17.562Z,101398.28
2022-11-05T18:47:49.378Z,101347.09
2022-11-05T18:50:20.720Z,101374.97
2022-11-05T18:52:51.258Z,101383.81
2022-11-05T18:55:22.838Z,101337.78
2022-11-05T18:57:53.290Z,101348.34
2022-11-05T19:00:23.368Z,101335.44
2022-11-05T19:02:53.576Z,101344.47
2022-11-05T19:05:29.507Z,101334.38
2022-11-05T19:08:00.018Z,101340.47
2022-11-05T19:10:30.439Z,101327.69
2022-11-05T19:13:01.256Z,101342.44
2022-11-05T19:15:31.269Z,101328.50
2022-11-05T19:18:01.802Z,101328.50
2022-11-05T19:20:37.502Z,101319.72
2022-11-05T19:23:08.373Z,101338.06
2022-11-05T19:25:40.787Z,101344.97
2022-11-05T19:28:12.688Z,101335.53
2022-11-05T19:30:43.863Z,101319.72
2022-11-05T19:33:14.351Z,101312.88
2022-11-05T19:35:44.662Z,101321.56
2022-11-05T19:38:15.781Z,101307.00
2022-11-05T19:40:45.853Z,101325.56
2022-11-05T19:43:16.271Z,101328.94
2022-11-05T19:45:46.268Z,101307.09
2022-11-05T19:48:19.515Z,101336.16
2022-11-05T19:50:50.068Z,101324.00
2022-11-05T19:53:20.324Z,101325.00
2022-11-05T19:55:51.371Z,101306.69
2022-11-05T19:58:21.377Z,101307.72
2022-11-05T20:00:51.984Z,101304.28
2022-11-05T20:03:24.923Z,101328.06
2022-11-05T20:05:54.937Z,101293.06
2022-11-05T20:08:26.503Z,101303.56
2022-11-05T20:10:57.250Z,101303.66
2022-11-05T20:13:28.749Z,101322.09
2022-11-05T20:15:59.575Z,101292.31
2022-11-05T20:18:30.518Z,101287.19
2022-11-05T20:21:08.480Z,101297.00
2022-11-05T20:23:38.951Z,101285.59
2022-11-05T20:26:10.919Z,101287.28
2022-11-05T20:28:45.124Z,101290.84
2022-11-05T20:31:18.311Z,101287.59
2022-11-05T20:33:49.298Z,101292.53
2022-11-05T20:36:26.033Z,101285.59
2022-11-05T20:39:01.204Z,101279.53
2022-11-05T20:41:32.789Z,101311.06
2022-11-05T20:44:03.217Z,101290.94
2022-11-05T20:46:35.452Z,101291.91
2022-11-05T20:49:05.697Z,101305.28
2022-11-05T20:51:36.528Z,101310.63
2022-11-05T20:54:07.257Z,101296.69
2022-11-05T20:56:38.547Z,101299.13
2022-11-05T20:59:10.504Z,101290.41
2022-11-05T21:01:40.897Z,101287.88
2022-11-05T21:04:13.353Z,101295.75
2022-11-05T21:06:44.646Z,101278.03
2022-11-05T21:09:16.093Z,101279.81
2022-11-05T21:12:04.097Z,101290.63
2022-11-05T21:14:35.544Z,101288.66
2022-11-05T21:17:06.941Z,101279.19
2022-11-05T21:19:38.345Z,101285.16
2022-11-05T21:22:09.081Z,101288.75
2022-11-05T21:24:39.682Z,101292.28
2022-11-05T21:27:10.755Z,101310.91
2022-11-05T21:29:42.233Z,101328.31
2022-11-05T21:32:12.994Z,101311.78
2022-11-05T21:34:43.540Z,101295.00
2022-11-05T21:37:13.545Z,101312.41
2022-11-05T21:39:43.504Z,101285.50
2022-11-05T21:42:13.425Z,101286.22
2022-11-05T21:44:43.719Z,101313.34
2022-11-05T21:47:14.134Z,101286.22
2022-11-05T21:49:44.640Z,101289.03
2022-11-05T21:52:32.624Z,101296.69
2022-11-05T21:55:21.487Z,101295.00
2022-11-05T21:58:09.608Z,101278.38
2022-11-05T22:00:40.324Z,101262.75
2022-11-05T22:03:10.429Z,101267.88
2022-11-05T22:05:40.470Z,101261.69
2022-11-05T22:08:10.645Z,101259.94
2022-11-05T22:10:40.864Z,101265.06
2022-11-05T22:13:10.798Z,101268.53
2022-11-05T22:15:40.717Z,101274.59
2022-11-05T22:18:11.035Z,101267.78
2022-11-05T22:20:41.858Z,101274.78
2022-11-05T22:23:11.825Z,101276.47
2022-11-05T22:25:41.823Z,101273.84
2022-11-05T22:28:12.188Z,101280.78
2022-11-05T22:30:42.580Z,101279.94
2022-11-05T22:33:12.490Z,101275.56
2022-11-05T22:35:42.433Z,101279.81
2022-11-05T22:38:14.103Z,101287.69
2022-11-05T22:40:45.038Z,101284.34
2022-11-05T22:43:15.278Z,101305.47
2022-11-05T22:45:45.204Z,101279.09
2022-11-05T22:48:15.541Z,101274.78
2022-11-05T22:50:45.843Z,101287.06
2022-11-05T22:53:15.805Z,101271.13
2022-11-05T22:55:45.733Z,101259.84
2022-11-05T22:58:15.822Z,101262.44
2022-11-05T23:00:45.809Z,101273.84
2022-11-05T23:03:15.742Z,101270.31
2022-11-05T23:05:45.772Z,101295.63
2022-11-05T23:08:34.740Z,101282.53
2022-11-05T23:11:22.239Z,101284.25
2022-11-05T23:13:52.463Z,101288.66
2022-11-05T23:16:40.565Z,101310.53
2022-11-05T23:19:29.497Z,101311.16
2022-11-05T23:22:17.545Z,101295.16
2022-11-05T23:24:49.762Z,101300.16
2022-11-05T23:27:21.392Z,101304.28
2022-11-05T23:29:52.253Z,101315.41
2022-11-05T23:32:29.759Z,101309.00
2022-11-05T23:35:01.215Z,101324.72
2022-11-05T23:37:51.040Z,101309.53
2022-11-05T23:40:25.065Z,101302.59
2022-11-05T23:43:15.744Z,101308.47
2022-11-05T23:46:04.765Z,101310.91
2022-11-05T23:48:39.719Z,101307.44
2022-11-05T23:51:14.313Z,101310.50
2022-11-05T23:53:45.033Z,101333.13
2022-11-05T23:56:17.845Z,101325.59
2022-11-05T23:58:49.319Z,101320.78
